Time;durP1;ratioP1;P1;durP2;ratioP2;P2;SDS_P1;SDS_P2;PMS_P1;PMS_P2;Temp;Humidity;BMP_temperature;BMP_pressure;BME280_temperature;BME280_humidity;BME280_pressure;Samples;Min_cycle;Max_cycle;Signal;HPM_P1;HPM_P2
2022/12/07 00:00:51;;;;;;;14.25;7.70;;;;;;;6.19;53.16;101422.66;7396758;19;20403;-63
2022/12/07 00:03:16;;;;;;;13.40;7.15;;;;;;;6.09;53.35;101422.81;7394091;19;20014;-63
2022/12/07 00:05:42;;;;;;;14.65;6.85;;;;;;;6.05;53.33;101421.81;7396394;19;20015;-61
2022/12/07 00:08:08;;;;;;;13.18;7.28;;;;;;;6.05;53.31;101419.09;7395533;19;20014;-63
2022/12/07 00:10:34;;;;;;;12.73;6.80;;;;;;;5.97;53.26;101411.63;7395828;19;20007;-60
2022/12/07 00:13:00;;;;;;;11.98;6.45;;;;;;;5.98;53.16;101410.56;7391539;19;20446;-61
2022/12/07 00:15:26;;;;;;;13.18;6.90;;;;;;;5.94;53.04;101416.56;7396111;19;20348;-62
2022/12/07 00:17:51;;;;;;;14.60;6.20;;;;;;;5.90;52.89;101414.72;7395628;19;19998;-62
2022/12/07 00:20:17;;;;;;;13.25;6.97;;;;;;;5.83;53.20;101415.09;7395923;19;20006;-63
2022/12/07 00:22:43;;;;;;;14.00;6.82;;;;;;;5.85;53.24;101412.88;7394676;19;20475;-60
2022/12/07 00:25:09;;;;;;;11.18;5.85;;;;;;;5.85;52.91;101415.59;7391956;19;20021;-61
2022/12/07 00:27:34;;;;;;;13.02;6.07;;;;;;;5.82;53.17;101418.88;7396177;19;20020;-61
2022/12/07 00:30:00;;;;;;;13.32;6.00;;;;;;;5.77;53.20;101418.97;7395429;19;20070;-62
2022/12/07 00:32:26;;;;;;;12.70;7.03;;;;;;;5.84;53.13;101416.72;7393458;19;20079;-60
2022/12/07 00:34:52;;;;;;;12.60;6.28;;;;;;;5.84;53.10;101418.59;7394504;19;20447;-61
2022/12/07 00:37:17;;;;;;;15.07;6.25;;;;;;;5.91;52.97;101421.75;7394581;19;20336;-61
2022/12/07 00:39:43;;;;;;;15.60;6.47;;;;;;;5.87;53.06;101412.59;7395036;19;20008;-62
2022/12/07 00:42:09;;;;;;;12.48;6.65;;;;;;;6.01;52.57;101404.50;7395055;19;20006;-60
2022/12/07 00:44:34;;;;;;;13.52;6.90;;;;;;;6.01;52.54;101410.75;7393658;19;20462;-61
2022/12/07 00:47:00;;;;;;;13.32;6.75;;;;;;;5.93;52.60;101414.94;7394452;19;20007;-62
2022/12/07 00:49:26;;;;;;;12.88;6.15;;;;;;;5.88;52.66;101404.19;7395772;19;20005;-61
2022/12/07 00:51:52;;;;;;;12.75;6.05;;;;;;;5.85;52.63;101412.09;7392420;19;20354;-61
2022/12/07 00:54:17;;;;;;;13.80;6.05;;;;;;;5.91;52.56;101397.38;7394742;19;19998;-61
2022/12/07 00:56:43;;;;;;;14.50;6.30;;;;;;;5.91;52.41;101400.88;7393797;19;20479;-61
2022/12/07 00:59:13;;;;;;;15.90;6.15;;;;;;;5.87;52.57;101402.56;7395524;19;20009;-61
2022/12/07 01:01:39;;;;;;;12.48;6.15;;;;;;;5.84;52.53;101405.88;7393781;19;20003;-61
2022/12/07 01:04:05;;;;;;;13.55;5.97;;;;;;;5.78;52.58;101401.63;7393689;19;20006;-61
2022/12/07 01:06:31;;;;;;;15.13;5.38;;;;;;;5.83;52.42;101404.25;7392106;19;20002;-62
2022/12/07 01:08:58;;;;;;;14.13;5.97;;;;;;;5.89;52.16;101397.66;7394705;19;20002;-62
2022/12/07 01:11:26;;;;;;;12.15;5.20;;;;;;;5.89;52.09;101403.09;7392510;19;20466;-62
2022/12/07 01:13:54;;;;;;;13.90;5.65;;;;;;;5.90;52.11;101404.69;7390541;19;19999;-61
2022/12/07 01:16:22;;;;;;;11.50;5.03;;;;;;;5.96;52.11;101408.13;7393541;19;19999;-61
2022/12/07 01:18:50;;;;;;;13.52;5.32;;;;;;;6.02;51.74;101416.97;7394635;19;19999;-60
2022/12/07 01:21:21;;;;;;;14.52;5.70;;;;;;;5.94;51.80;101411.13;7391952;19;20383;-61
2022/12/07 01:23:48;;;;;;;15.60;4.65;;;;;;;5.86;51.74;101409.09;7392167;19;20015;-62
2022/12/07 01:26:16;;;;;;;11.77;4.50;;;;;;;5.88;51.69;101401.47;7393980;19;20018;-61
2022/12/07 01:28:43;;;;;;;13.30;4.90;;;;;;;5.99;51.30;101398.59;7393352;19;20003;-61
2022/12/07 01:31:14;;;;;;;12.57;5.05;;;;;;;5.96;51.26;101396.47;7393118;19;20013;-61
2022/12/07 01:33:41;;;;;;;13.00;4.80;;;;;;;5.95;51.15;101392.97;7392647;19;20068;-62
2022/12/07 01:36:31;;;;;;;12.30;4.20;;;;;;;5.86;50.92;101390.13;7393171;19;20006;-62
2022/12/07 01:39:04;;;;;;;10.88;4.03;;;;;;;5.92;51.18;101397.06;7392804;19;20067;-62
2022/12/07 01:41:33;;;;;;;12.55;3.75;;;;;;;5.87;51.29;101394.44;7393316;19;20002;-62
2022/12/07 01:44:22;;;;;;;14.23;4.03;;;;;;;5.93;50.93;101395.16;7392926;19;20006;-60
2022/12/07 01:46:52;;;;;;;10.82;3.88;;;;;;;5.71;51.55;101390.38;7392953;19;20006;-61
2022/12/07 01:49:35;;;;;;;11.63;3.83;;;;;;;5.71;51.10;101393.06;7393043;19;20036;-61
2022/12/07 01:52:07;;;;;;;14.73;3.88;;;;;;;5.85;51.05;101390.41;7390564;19;20039;-61
2022/12/07 01:54:34;;;;;;;11.98;3.92;;;;;;;5.93;50.46;101393.25;7393080;19;20312;-61
2022/12/07 01:57:01;;;;;;;15.07;3.47;;;;;;;5.93;50.66;101393.25;7390889;19;20003;-61
2022/12/07 01:59:27;;;;;;;9.52;3.28;;;;;;;5.93;50.50;101389.75;7392362;19;20022;-61
2022/12/07 02:01:55;;;;;;;9.20;3.00;;;;;;;5.93;50.50;101385.13;7392367;19;20003;-62
2022/12/07 02:04:22;;;;;;;9.32;2.88;;;;;;;5.94;50.70;101384.03;7390623;19;20706;-62
2022/12/07 02:06:48;;;;;;;13.07;3.40;;;;;;;5.89;50.74;101376.00;7392206;19;20029;-61
2022/12/07 02:09:14;;;;;;;10.00;3.30;;;;;;;5.95;50.91;101384.84;7392193;19;20359;-61
2022/12/07 02:11:40;;;;;;;7.80;3.20;;;;;;;5.82;51.17;101375.53;7391682;19;19998;-61
2022/12/07 02:14:06;;;;;;;11.70;3.30;;;;;;;5.77;51.25;101383.75;7392240;19;20332;-61
2022/12/07 02:16:56;;;;;;;11.63;3.50;;;;;;;5.86;51.05;101387.41;7391304;19;20021;-61
2022/12/07 02:19:59;;;;;;;10.85;3.35;;;;;;;5.66;51.37;101382.28;7392251;19;20351;-61
2022/12/07 02:22:59;;;;;;;11.40;3.60;;;;;;;4.91;53.12;101375.69;7389388;19;20003;-61
2022/12/07 02:26:02;;;;;;;10.32;3.78;;;;;;;5.48;52.05;101371.19;7389518;19;20013;-61
2022/12/07 02:28:33;;;;;;;11.73;4.15;;;;;;;5.56;51.86;101365.09;7392748;19;19999;-62
2022/12/07 02:31:05;;;;;;;11.70;3.80;;;;;;;5.55;51.59;101362.69;7391173;19;19995;-61
2022/12/07 02:33:40;;;;;;;13.43;4.30;;;;;;;5.61;51.38;101358.00;7390512;19;20007;-61
2022/12/07 02:36:17;;;;;;;11.10;4.00;;;;;;;5.46;51.77;101359.84;7390745;19;20009;-62
2022/12/07 02:38:59;;;;;;;8.65;3.35;;;;;;;5.48;51.57;101359.53;7392489;19;20002;-62
2022/12/07 02:41:31;;;;;;;10.43;3.83;;;;;;;5.48;51.57;101354.94;7391818;19;20331;-62
2022/12/07 02:44:09;;;;;;;10.23;3.80;;;;;;;5.54;51.56;101366.47;7389541;19;20010;-62
2022/12/07 02:46:46;;;;;;;11.40;4.00;;;;;;;5.47;51.66;101363.34;7390303;19;20025;-61
2022/12/07 02:49:23;;;;;;;13.15;3.67;;;;;;;5.48;51.54;101363.06;7388237;19;20022;-62
2022/12/07 02:51:49;;;;;;;10.50;4.07;;;;;;;5.55;51.58;101374.31;7390287;19;20078;-61
2022/12/07 02:54:17;;;;;;;8.80;3.42;;;;;;;5.52;51.75;101366.81;7393166;19;20011;-61
2022/12/07 02:56:43;;;;;;;11.98;3.75;;;;;;;5.59;51.31;101373.72;7394773;19;20007;-61
2022/12/07 02:59:47;;;;;;;10.00;4.20;;;;;;;5.50;51.52;101370.88;7389600;19;20006;-62
2022/12/07 03:02:36;;;;;;;15.13;4.30;;;;;;;5.42;51.46;101374.25;7390466;19;20078;-62
2022/12/07 03:05:31;;;;;;;10.77;3.65;;;;;;;5.50;51.56;101374.38;7389888;19;20001;-62
2022/12/07 03:08:10;;;;;;;11.63;3.72;;;;;;;5.56;51.55;101367.00;7390808;19;20415;-62
2022/12/07 03:10:42;;;;;;;12.38;3.35;;;;;;;5.43;51.51;101368.53;7390565;19;20025;-62
2022/12/07 03:13:39;;;;;;;14.85;4.63;;;;;;;5.46;51.48;101367.97;7389835;19;20313;-62
2022/12/07 03:16:14;;;;;;;13.35;4.45;;;;;;;5.60;51.19;101361.81;7390415;19;20013;-61
2022/12/07 03:19:04;;;;;;;11.90;4.38;;;;;;;5.61;51.33;101364.22;7388293;19;19999;-60
2022/12/07 03:21:35;;;;;;;14.38;4.50;;;;;;;5.66;51.25;101363.31;7389770;19;20002;-61
2022/12/07 03:24:20;;;;;;;12.52;4.10;;;;;;;5.70;51.02;101364.38;7390001;19;19999;-61
2022/12/07 03:26:51;;;;;;;13.15;4.25;;;;;;;5.74;51.19;101362.66;7389762;19;20023;-61
2022/12/07 03:29:25;;;;;;;11.73;3.88;;;;;;;5.78;51.02;101360.19;7388496;19;20002;-61
2022/12/07 03:32:15;;;;;;;11.57;3.42;;;;;;;5.88;50.81;101358.13;7385976;19;20492;-61
2022/12/07 03:34:52;;;;;;;10.80;3.38;;;;;;;5.90;50.61;101350.50;7392232;19;20006;-61
2022/12/07 03:37:29;;;;;;;9.88;2.95;;;;;;;5.83;50.70;101352.78;7397081;19;20089;-61
2022/12/07 03:40:16;;;;;;;9.95;2.58;;;;;;;5.83;50.82;101352.78;7395715;19;20351;-62
2022/12/07 03:42:42;;;;;;;9.95;2.80;;;;;;;5.97;50.51;101349.31;7395945;19;20098;-62
2022/12/07 03:45:09;;;;;;;8.40;2.20;;;;;;;5.95;50.67;101357.75;7396217;19;19999;-60
2022/12/07 03:48:20;;;;;;;8.20;2.25;;;;;;;5.93;50.81;101368.88;7396426;19;20509;-61
2022/12/07 03:50:55;;;;;;;10.70;3.35;;;;;;;5.93;51.04;101370.78;7394070;19;19990;-61
2022/12/07 03:53:39;;;;;;;8.35;3.25;;;;;;;5.99;51.05;101368.78;7395128;19;20009;-61
2022/12/07 03:56:08;;;;;;;13.98;3.47;;;;;;;5.84;51.40;101367.94;7396280;19;19998;-60
2022/12/07 03:58:34;;;;;;;10.48;3.45;;;;;;;5.73;51.88;101358.38;7395963;19;19991;-61
2022/12/07 04:01:01;;;;;;;11.10;3.40;;;;;;;5.86;51.82;101344.06;7396739;19;20072;-62
2022/12/07 04:03:26;;;;;;;11.18;3.38;;;;;;;5.87;51.89;101345.66;7393986;19;19999;-61
2022/12/07 04:05:53;;;;;;;12.15;2.88;;;;;;;5.86;51.57;101340.53;7396527;19;20079;-62
2022/12/07 04:08:19;;;;;;;11.32;3.47;;;;;;;5.69;52.12;101343.78;7396152;19;19994;-61
2022/12/07 04:10:45;;;;;;;14.32;3.63;;;;;;;5.76;51.84;101352.34;7394880;19;20023;-61
2022/12/07 04:13:11;;;;;;;13.93;3.63;;;;;;;5.74;51.88;101354.53;7394194;19;19994;-60
2022/12/07 04:15:36;;;;;;;11.18;3.15;;;;;;;5.78;51.65;101354.78;7395674;19;19995;-61
2022/12/07 04:18:02;;;;;;;10.77;3.58;;;;;;;5.78;51.51;101347.44;7394359;19;20082;-61
2022/12/07 04:20:28;;;;;;;10.73;3.58;;;;;;;5.75;51.63;101348.81;7396164;19;20285;-61
2022/12/07 04:22:54;;;;;;;10.73;4.00;;;;;;;5.64;52.24;101352.00;7394838;19;20352;-62
2022/12/07 04:25:19;;;;;;;10.80;4.00;;;;;;;5.63;52.07;101356.59;7390929;19;20394;-61
2022/12/07 04:27:45;;;;;;;11.00;3.90;;;;;;;5.66;52.08;101363.31;7396700;19;20021;-60
2022/12/07 04:30:11;;;;;;;10.23;3.65;;;;;;;5.56;52.26;101373.22;7395213;19;20441;-60
2022/12/07 04:32:37;;;;;;;12.25;4.10;;;;;;;5.63;52.16;101353.91;7393857;19;20040;-60
2022/12/07 04:35:03;;;;;;;10.90;3.80;;;;;;;5.74;51.88;101354.53;7394227;19;20611;-60
2022/12/07 04:37:29;;;;;;;11.05;3.75;;;;;;;5.73;51.66;101356.44;7394887;19;20474;-60
2022/12/07 04:39:54;;;;;;;13.65;4.03;;;;;;;5.64;52.08;101357.41;7395017;19;20013;-60
2022/12/07 04:42:20;;;;;;;10.68;4.10;;;;;;;5.67;51.97;101354.13;7394755;19;20007;-60
2022/12/07 04:44:46;;;;;;;13.52;4.03;;;;;;;5.60;51.91;101349.06;7394133;19;19994;-60
2022/12/07 04:47:11;;;;;;;11.02;4.05;;;;;;;5.66;51.96;101349.78;7394598;19;20372;-60
2022/12/07 04:49:37;;;;;;;12.15;3.47;;;;;;;5.70;51.58;101348.13;7394546;19;20011;-61
2022/12/07 04:52:03;;;;;;;10.43;3.90;;;;;;;5.66;51.84;101355.19;7392770;19;20035;-60
2022/12/07 04:54:29;;;;;;;11.70;4.03;;;;;;;5.74;51.44;101351.81;7395973;19;19994;-60
2022/12/07 04:56:54;;;;;;;11.98;3.83;;;;;;;5.71;51.62;101347.81;7394147;19;20359;-60
2022/12/07 04:59:20;;;;;;;11.45;4.28;;;;;;;5.69;51.70;101354.63;7392917;19;20007;-60
2022/12/07 05:01:46;;;;;;;9.27;3.78;;;;;;;5.69;51.86;101354.63;7393429;19;20006;-61
2022/12/07 05:04:12;;;;;;;10.13;3.10;;;;;;;5.71;51.70;101347.81;7391391;19;20323;-61
2022/12/07 05:06:37;;;;;;;10.65;3.20;;;;;;;5.65;51.83;101340.06;7392605;19;20095;-62
2022/12/07 05:09:03;;;;;;;10.63;3.22;;;;;;;5.68;51.65;101339.47;7392489;19;20003;-61
2022/12/07 05:11:38;;;;;;;11.63;3.28;;;;;;;5.62;51.67;101346.88;7391267;19;20012;-60
2022/12/07 05:14:07;;;;;;;10.75;3.70;;;;;;;5.45;52.00;101339.25;7392309;19;20036;-60
2022/12/07 05:16:33;;;;;;;8.40;3.28;;;;;;;5.36;52.09;101343.75;7392489;19;20003;-61
2022/12/07 05:18:58;;;;;;;10.50;3.30;;;;;;;5.35;52.05;101344.81;7391808;19;20034;-61
2022/12/07 05:21:24;;;;;;;9.77;3.08;;;;;;;5.36;52.03;101351.88;7393130;19;20014;-60
2022/12/07 05:23:50;;;;;;;10.30;3.20;;;;;;;5.48;51.72;101349.50;7390501;19;20007;-60
2022/12/07 05:26:17;;;;;;;9.20;2.80;;;;;;;5.53;51.63;101345.94;7395964;19;20078;-61
2022/12/07 05:28:43;;;;;;;4.78;2.30;;;;;;;5.37;51.94;101348.03;7392578;19;20475;-61
2022/12/07 05:31:15;;;;;;;9.85;2.83;;;;;;;5.33;51.89;101352.44;7392894;19;20066;-61
2022/12/07 05:33:41;;;;;;;8.95;3.03;;;;;;;5.36;51.74;101352.66;7392049;19;20014;-61
2022/12/07 05:36:07;;;;;;;7.25;2.60;;;;;;;5.37;51.65;101348.88;7390670;19;20077;-60
2022/12/07 05:38:33;;;;;;;7.55;2.65;;;;;;;5.42;51.62;101344.47;7393522;19;20011;-60
2022/12/07 05:41:03;;;;;;;6.70;1.90;;;;;;;5.44;51.39;101343.09;7391144;19;20025;-60
2022/12/07 05:43:29;;;;;;;8.35;2.50;;;;;;;5.38;51.62;101339.63;7392988;19;20066;-61
2022/12/07 05:45:56;;;;;;;8.35;2.20;;;;;;;5.37;51.47;101337.22;7392405;19;20539;-60
2022/12/07 05:48:22;;;;;;;8.15;1.98;;;;;;;5.46;51.33;101335.47;7393258;19;20006;-60
2022/12/07 05:50:48;;;;;;;7.82;2.00;;;;;;;5.50;51.12;101330.28;7392420;19;20006;-61
2022/12/07 05:53:14;;;;;;;8.55;1.88;;;;;;;5.41;51.47;101329.31;7391828;19;20009;-61
2022/12/07 05:55:40;;;;;;;4.18;1.30;;;;;;;5.51;51.22;101324.56;7391248;19;20007;-61
2022/12/07 06:00:50;;;;;;;6.15;1.60;;;;;;;5.52;51.18;101339.72;7392249;19;20007;-61
2022/12/07 06:03:15;;;;;;;9.45;1.70;;;;;;;5.49;51.27;101332.19;7391508;19;20425;-61
2022/12/07 06:05:41;;;;;;;7.05;1.63;;;;;;;5.46;51.13;101343.59;7390016;19;20005;-61
2022/12/07 06:08:07;;;;;;;6.65;2.00;;;;;;;5.46;51.25;101346.31;7391935;19;20712;-61
2022/12/07 06:10:33;;;;;;;8.20;2.28;;;;;;;5.54;51.07;101353.75;7391960;19;20006;-62
2022/12/07 06:12:59;;;;;;;7.72;2.30;;;;;;;5.59;51.14;101360.19;7389918;19;20459;-61
2022/12/07 06:15:25;;;;;;;8.63;2.53;;;;;;;5.62;51.04;101359.59;7391269;19;20018;-61
2022/12/07 06:17:51;;;;;;;6.80;2.60;;;;;;;5.73;50.91;101359.16;7389914;19;19999;-61
2022/12/07 06:20:16;;;;;;;10.00;3.15;;;;;;;5.75;50.64;101358.88;7390540;19;20025;-61
2022/12/07 06:22:42;;;;;;;8.27;2.97;;;;;;;5.72;50.97;101364.88;7388629;19;20065;-61
2022/12/07 06:25:09;;;;;;;9.05;2.28;;;;;;;5.62;51.10;101370.44;7390109;19;20082;-60
2022/12/07 06:27:35;;;;;;;6.90;1.60;;;;;;;5.63;51.00;101366.66;7390590;19;20083;-61
2022/12/07 06:30:06;;;;;;;5.43;1.40;;;;;;;5.60;50.80;101368.03;7391566;19;20062;-60
2022/12/07 06:32:33;;;;;;;7.47;1.80;;;;;;;5.66;50.78;101376.88;7390619;19;20007;-61
2022/12/07 06:35:01;;;;;;;6.25;1.20;;;;;;;5.61;50.68;101369.66;7389345;19;20020;-61
2022/12/07 06:37:27;;;;;;;7.05;1.30;;;;;;;5.54;50.79;101370.00;7391587;19;19994;-61
2022/12/07 06:39:52;;;;;;;7.55;1.40;;;;;;;5.54;50.78;101367.31;7391252;19;19991;-61
2022/12/07 06:42:18;;;;;;;5.55;1.50;;;;;;;5.48;51.02;101365.75;7389271;19;20028;-62
2022/12/07 06:44:44;;;;;;;5.40;1.58;;;;;;;5.35;51.25;101366.47;7391228;19;20030;-62
2022/12/07 06:47:09;;;;;;;11.13;2.60;;;;;;;5.44;51.02;101362.03;7391451;19;19998;-61
2022/12/07 06:49:35;;;;;;;15.82;3.42;;;;;;;5.42;51.14;101361.50;7391209;19;20002;-62
2022/12/07 06:52:01;;;;;;;8.95;2.67;;;;;;;5.48;51.07;101360.34;7390822;19;19999;-61
2022/12/07 06:54:27;;;;;;;10.90;3.00;;;;;;;5.59;50.86;101354.78;7388894;19;20035;-60
2022/12/07 06:56:52;;;;;;;13.50;2.45;;;;;;;5.61;51.04;101353.41;7390316;19;19999;-61
2022/12/07 06:59:18;;;;;;;8.40;2.28;;;;;;;5.64;50.86;101363.66;7390681;19;20001;-61
2022/12/07 07:01:44;;;;;;;12.43;1.80;;;;;;;5.63;50.78;101361.22;7390340;19;20058;-61
2022/12/07 07:04:09;;;;;;;10.35;1.77;;;;;;;5.53;51.38;101362.97;7389553;19;20013;-61
2022/12/07 07:06:35;;;;;;;10.32;1.65;;;;;;;5.55;51.26;101368.91;7388387;19;20018;-61
2022/12/07 07:09:01;;;;;;;9.73;1.40;;;;;;;5.53;51.26;101373.00;7395887;19;20454;-60
2022/12/07 07:11:27;;;;;;;6.50;1.65;;;;;;;5.53;51.50;101373.00;7396977;19;20050;-61
2022/12/07 07:13:53;;;;;;;7.07;1.27;;;;;;;5.56;51.41;101367.81;7395179;19;20016;-61
2022/12/07 07:16:19;;;;;;;7.57;1.52;;;;;;;5.48;51.46;101373.09;7396628;19;20020;-62
2022/12/07 07:18:44;;;;;;;9.23;2.00;;;;;;;5.54;51.27;101369.19;7398560;19;20349;-62
2022/12/07 07:21:10;;;;;;;5.18;1.70;;;;;;;5.42;51.58;101366.91;7397033;19;20002;-61
2022/12/07 07:23:36;;;;;;;8.00;1.30;;;;;;;5.44;51.73;101369.34;7395287;19;20014;-62
2022/12/07 07:26:11;;;;;;;6.60;1.58;;;;;;;5.44;51.41;101372.88;7393943;19;20006;-61
2022/12/07 07:28:37;;;;;;;7.65;1.52;;;;;;;5.38;51.53;101368.63;7398315;19;20011;-62
2022/12/07 07:33:29;;;;;;;10.15;1.75;;;;;;;5.33;51.67;101371.41;7394197;19;20015;-60
2022/12/07 07:35:55;;;;;;;6.63;1.63;;;;;;;5.40;51.41;101366.41;7396655;19;20022;-59
2022/12/07 07:38:21;;;;;;;7.90;1.83;;;;;;;5.28;51.64;101361.41;7396096;19;19994;-59
2022/12/07 07:40:46;;;;;;;7.80;1.50;;;;;;;5.32;51.61;101350.81;7397282;19;19998;-59
2022/12/07 07:43:12;;;;;;;9.13;1.52;;;;;;;5.34;51.56;101354.03;7394105;19;20009;-59
2022/12/07 07:45:38;;;;;;;8.55;1.75;;;;;;;5.32;51.57;101358.94;7394728;19;20333;-59
2022/12/07 07:48:04;;;;;;;8.20;1.52;;;;;;;5.31;51.46;101360.81;7397104;19;20003;-59
2022/12/07 07:50:30;;;;;;;5.75;1.33;;;;;;;5.35;51.25;101361.06;7395916;19;19990;-59
2022/12/07 07:52:57;;;;;;;7.13;1.50;;;;;;;5.40;51.41;101363.72;7394238;19;20026;-59
2022/12/07 07:55:22;;;;;;;4.40;1.25;;;;;;;5.44;51.09;101353.91;7395909;19;19999;-59
2022/12/07 07:57:48;;;;;;;7.63;1.40;;;;;;;5.40;51.17;101363.72;7395191;19;20325;-59
2022/12/07 08:00:15;;;;;;;5.28;1.30;;;;;;;5.35;51.25;101380.03;7396736;19;20003;-59
2022/12/07 08:02:42;;;;;;;7.45;1.02;;;;;;;5.33;51.36;101372.19;7393957;19;20344;-59
2022/12/07 08:05:10;;;;;;;3.92;1.10;;;;;;;5.22;51.50;101373.38;7393960;19;20002;-60
2022/12/07 08:07:35;;;;;;;3.00;0.88;;;;;;;5.32;51.29;101367.06;7396645;19;20022;-60
2022/12/07 08:10:01;;;;;;;7.57;1.30;;;;;;;5.36;51.23;101376.22;7396016;19;19999;-60
2022/12/07 08:12:27;;;;;;;7.82;1.42;;;;;;;5.30;51.26;101377.34;7394046;19;20463;-60
2022/12/07 08:14:53;;;;;;;5.43;1.05;;;;;;;5.16;51.46;101369.16;7395532;19;20005;-60
2022/12/07 08:17:18;;;;;;;6.13;1.15;;;;;;;5.22;51.27;101373.38;7396272;19;20662;-59
2022/12/07 08:19:44;;;;;;;6.22;1.38;;;;;;;5.28;51.16;101380.34;7390146;19;20279;-59
2022/12/07 08:22:10;;;;;;;5.30;1.33;;;;;;;5.42;50.86;101380.47;7394349;19;20002;-60
2022/12/07 08:24:36;;;;;;;7.57;1.10;;;;;;;5.46;50.93;101380.69;7395288;19;20467;-59
2022/12/07 08:27:02;;;;;;;7.25;1.30;;;;;;;5.53;50.66;101384.63;7395196;19;20015;-59
2022/12/07 08:29:28;;;;;;;5.38;1.50;;;;;;;5.55;50.70;101395.19;7395277;19;20058;-59
2022/12/07 08:31:54;;;;;;;3.40;1.38;;;;;;;5.49;50.93;101394.47;7393312;19;20015;-60
2022/12/07 08:34:20;;;;;;;5.57;1.02;;;;;;;5.51;50.73;101396.88;7394787;19;19998;-60
2022/12/07 08:36:45;;;;;;;5.43;1.10;;;;;;;5.40;51.15;101390.78;7395486;19;20002;-60
2022/12/07 08:39:11;;;;;;;3.67;0.88;;;;;;;5.33;51.20;101385.72;7394376;19;19999;-60
2022/12/07 08:41:37;;;;;;;4.50;1.00;;;;;;;5.40;51.20;101390.78;7394534;19;19998;-60
2022/12/07 08:44:03;;;;;;;5.18;1.08;;;;;;;5.38;51.45;101382.16;7394545;19;19999;-60
2022/12/07 08:46:39;;;;;;;2.58;0.90;;;;;;;5.35;51.47;101383.53;7392954;19;20069;-60
2022/12/07 08:49:12;;;;;;;6.40;1.17;;;;;;;5.17;51.98;101387.81;7394673;19;20003;-60
2022/12/07 08:51:39;;;;;;;4.35;1.00;;;;;;;5.30;51.80;101397.09;7393800;19;20058;-60
2022/12/07 08:54:09;;;;;;;6.05;1.00;;;;;;;5.42;51.37;101385.88;7397305;19;20014;-60
2022/12/07 08:56:35;;;;;;;10.25;1.58;;;;;;;5.59;51.13;101404.31;7391087;19;20579;-60
2022/12/07 08:59:01;;;;;;;7.97;1.00;;;;;;;5.60;51.18;101397.03;7392936;19;20036;-59
2022/12/07 09:01:27;;;;;;;4.13;0.75;;;;;;;5.59;50.94;101404.31;7391884;19;20002;-60
2022/12/07 09:03:53;;;;;;;10.32;1.17;;;;;;;5.66;50.89;101403.94;7394020;19;20024;-59
2022/12/07 09:06:19;;;;;;;4.68;1.23;;;;;;;5.68;50.73;101394.44;7393184;19;20006;-61
2022/12/07 09:08:49;;;;;;;9.35;1.83;;;;;;;5.75;50.52;101399.50;7394056;19;20066;-61
2022/12/07 09:11:15;;;;;;;8.82;2.08;;;;;;;5.79;50.29;101386.16;7390774;19;20474;-61
2022/12/07 09:13:41;;;;;;;4.80;1.90;;;;;;;5.73;50.41;101394.38;7392654;19;20003;-60
2022/12/07 09:16:07;;;;;;;4.07;1.52;;;;;;;5.67;50.65;101389.31;7392484;19;20541;-60
2022/12/07 09:18:33;;;;;;;5.22;1.10;;;;;;;5.62;50.89;101386.69;7393650;19;20005;-60
2022/12/07 09:20:58;;;;;;;7.57;1.00;;;;;;;5.65;50.65;101391.53;7393762;19;20017;-60
2022/12/07 09:23:24;;;;;;;6.82;1.13;;;;;;;5.53;50.99;101387.34;7393855;19;20050;-60
2022/12/07 09:25:50;;;;;;;6.45;1.30;;;;;;;5.56;50.83;101394.88;7393542;19;20003;-60
2022/12/07 09:28:16;;;;;;;4.32;1.05;;;;;;;5.72;50.53;101398.16;7391050;19;20002;-60
2022/12/07 09:30:48;;;;;;;4.68;1.00;;;;;;;5.68;50.67;101390.94;7391603;19;20062;-60
2022/12/07 09:33:14;;;;;;;6.97;1.30;;;;;;;5.67;50.75;101379.28;7388824;19;20018;-59
2022/12/07 09:35:50;;;;;;;9.88;2.03;;;;;;;5.59;51.23;101379.94;7392592;19;20006;-59
2022/12/07 09:38:17;;;;;;;6.72;1.08;;;;;;;5.69;50.89;101365.44;7390869;19;19998;-60
2022/12/07 09:40:43;;;;;;;8.75;1.67;;;;;;;5.75;50.90;101367.00;7391533;19;20344;-60
2022/12/07 09:43:20;;;;;;;6.40;1.60;;;;;;;5.91;50.71;101368.38;7391589;19;20018;-59
2022/12/07 09:45:48;;;;;;;4.88;1.35;;;;;;;5.94;50.49;101373.19;7392838;19;19994;-60
2022/12/07 09:48:21;;;;;;;7.35;1.60;;;;;;;5.92;50.38;101377.28;7392454;19;20026;-60
2022/12/07 09:50:49;;;;;;;7.70;2.15;;;;;;;5.83;50.83;101374.44;7392588;19;19998;-60
2022/12/07 09:53:25;;;;;;;8.85;2.15;;;;;;;5.70;51.06;101373.28;7391130;19;20007;-61
2022/12/07 09:55:51;;;;;;;10.13;2.42;;;;;;;5.66;51.24;101371.44;7391884;19;19999;-60
2022/12/07 09:58:26;;;;;;;8.05;1.80;;;;;;;5.83;50.84;101366.31;7391458;19;20029;-59
2022/12/07 10:00:58;;;;;;;11.18;1.85;;;;;;;6.04;50.45;101371.41;7393495;19;20006;-59
2022/12/07 10:03:26;;;;;;;9.48;1.65;;;;;;;6.02;50.28;101366.28;7392370;19;19995;-60
2022/12/07 10:05:52;;;;;;;6.07;1.50;;;;;;;6.23;49.82;101369.47;7389604;19;20029;-58
2022/12/07 10:08:19;;;;;;;8.27;1.40;;;;;;;6.33;49.70;101373.91;7392064;19;20000;-59
2022/12/07 10:10:51;;;;;;;6.05;1.38;;;;;;;6.31;49.68;101381.53;7389386;19;20616;-60
2022/12/07 10:13:33;;;;;;;4.95;1.23;;;;;;;6.27;49.81;101378.59;7390571;19;20009;-59
2022/12/07 10:15:58;;;;;;;7.47;1.83;;;;;;;6.12;50.09;101374.25;7391276;19;20026;-60
2022/12/07 10:18:28;;;;;;;5.13;1.30;;;;;;;6.02;50.25;101379.84;7391602;19;20549;-59
2022/12/07 10:21:23;;;;;;;8.30;1.58;;;;;;;5.96;50.04;101375.63;7391800;19;20002;-59
2022/12/07 10:24:10;;;;;;;9.75;1.40;;;;;;;5.91;50.11;101376.50;7391106;19;19999;-60
2022/12/07 10:26:48;;;;;;;7.78;1.70;;;;;;;5.96;49.82;101369.38;7390436;19;20002;-60
2022/12/07 10:29:27;;;;;;;6.13;1.73;;;;;;;5.91;50.05;101360.25;7391918;19;19998;-60
2022/12/07 10:31:57;;;;;;;5.38;1.35;;;;;;;5.99;50.04;101358.75;7389552;19;20033;-59
2022/12/07 10:34:28;;;;;;;8.85;2.38;;;;;;;5.86;50.39;101365.75;7391304;19;20012;-59
2022/12/07 10:37:17;;;;;;;10.73;3.35;;;;;;;5.89;50.25;101359.75;7390324;19;20066;-59
2022/12/07 10:39:51;;;;;;;9.40;2.70;;;;;;;6.03;50.04;101353.56;7391947;19;20016;-60
2022/12/07 10:42:19;;;;;;;8.13;2.70;;;;;;;6.06;49.87;101352.94;7388665;19;20487;-60
2022/12/07 10:44:45;;;;;;;6.95;2.28;;;;;;;6.12;49.80;101357.19;7390633;19;20036;-59
2022/12/07 10:47:29;;;;;;;6.35;1.90;;;;;;;6.27;49.36;101358.81;7391252;19;20017;-59
2022/12/07 10:50:08;;;;;;;6.07;1.90;;;;;;;6.18;49.42;101350.59;7391701;19;20078;-60
2022/12/07 10:52:42;;;;;;;5.45;1.30;;;;;;;6.19;49.18;101349.47;7389270;19;19998;-60
2022/12/07 10:55:27;;;;;;;5.70;1.10;;;;;;;6.23;48.98;101336.13;7390178;19;20003;-60
2022/12/07 10:57:56;;;;;;;4.13;1.55;;;;;;;6.32;49.02;101335.13;7390363;19;20062;-60
2022/12/07 11:00:24;;;;;;;8.93;1.30;;;;;;;6.24;49.50;101337.72;7391259;19;20010;-60
2022/12/07 11:03:19;;;;;;;6.47;1.42;;;;;;;6.12;49.65;101333.59;7387459;19;20036;-60
2022/12/07 11:06:25;;;;;;;9.57;1.33;;;;;;;6.17;49.70;101343.53;7388729;19;20009;-60
2022/12/07 11:09:36;;;;;;;5.35;1.05;;;;;;;6.19;49.78;101351.38;7389222;19;20003;-59
2022/12/07 11:12:19;;;;;;;7.03;1.30;;;;;;;6.02;50.19;101351.94;7388092;19;20003;-60
2022/12/07 11:15:05;;;;;;;8.00;2.05;;;;;;;5.97;50.49;101349.31;7389629;19;20030;-59
2022/12/07 11:17:52;;;;;;;9.25;2.17;;;;;;;6.12;50.22;101343.63;7390681;19;20376;-60
2022/12/07 11:20:46;;;;;;;10.13;2.30;;;;;;;6.14;49.73;101322.44;7389747;19;20023;-60
2022/12/07 11:23:47;;;;;;;13.07;2.10;;;;;;;6.26;49.61;101311.13;7388610;19;20007;-60
2022/12/07 11:26:41;;;;;;;10.80;2.75;;;;;;;6.29;49.36;101305.94;7389983;19;20014;-60
2022/12/07 11:29:16;;;;;;;8.52;2.20;;;;;;;6.26;49.37;101303.81;7390342;19;20087;-61
2022/12/07 11:32:10;;;;;;;7.30;2.60;;;;;;;6.09;49.25;101306.28;7388633;19;20015;-60
2022/12/07 11:35:20;;;;;;;5.05;1.80;;;;;;;6.31;49.49;101303.72;7389521;19;20010;-59
2022/12/07 11:37:47;;;;;;;8.60;2.15;;;;;;;6.42;49.38;101306.22;7388751;19;20018;-59
2022/12/07 11:40:30;;;;;;;8.00;2.03;;;;;;;6.58;49.16;101310.25;7389057;19;19999;-60
2022/12/07 11:43:18;;;;;;;6.53;1.40;;;;;;;6.61;49.15;101306.94;7386204;19;20007;-59
2022/12/07 11:45:51;;;;;;;7.68;1.35;;;;;;;6.69;49.37;101310.84;7388730;19;20235;-60
2022/12/07 11:48:21;;;;;;;11.52;1.83;;;;;;;6.59;49.64;101302.91;7389862;19;20007;-60
2022/12/07 11:50:53;;;;;;;8.45;1.92;;;;;;;6.59;49.53;101314.56;7389116;19;20534;-60